sensor_id;sensor_type;location;lat;lon;timestamp;P1;durP1;ratioP1;P2;durP2;ratioP2
19973;SDS011;10148;47.694;9.442;2023-01-24T00:00:54;10.03;;;5.47;;
19973;SDS011;10148;47.694;9.442;2023-01-24T00:03:20;12.70;;;6.30;;
19973;SDS011;10148;47.694;9.442;2023-01-24T00:05:46;11.20;;;6.20;;
19973;SDS011;10148;47.694;9.442;2023-01-24T00:08:14;9.67;;;5.90;;
19973;SDS011;10148;47.694;9.442;2023-01-24T00:10:43;10.20;;;6.10;;
19973;SDS011;10148;47.694;9.442;2023-01-24T00:13:09;7.97;;;5.33;;
19973;SDS011;10148;47.694;9.442;2023-01-24T00:15:36;12.00;;;6.23;;
19973;SDS011;10148;47.694;9.442;2023-01-24T00:18:02;10.43;;;5.50;;
19973;SDS011;10148;47.694;9.442;2023-01-24T00:20:27;9.30;;;5.70;;
19973;SDS011;10148;47.694;9.442;2023-01-24T00:22:53;9.67;;;6.33;;
19973;SDS011;10148;47.694;9.442;2023-01-24T00:25:18;12.63;;;6.20;;
19973;SDS011;10148;47.694;9.442;2023-01-24T00:27:44;11.53;;;5.83;;
19973;SDS011;10148;47.694;9.442;2023-01-24T00:30:10;12.53;;;6.80;;
19973;SDS011;10148;47.694;9.442;2023-01-24T00:32:35;11.13;;;6.00;;
19973;SDS011;10148;47.694;9.442;2023-01-24T00:35:01;13.80;;;5.90;;
19973;SDS011;10148;47.694;9.442;2023-01-24T00:37:27;10.63;;;6.13;;
19973;SDS011;10148;47.694;9.442;2023-01-24T00:39:52;11.93;;;6.07;;
19973;SDS011;10148;47.694;9.442;2023-01-24T00:42:18;8.07;;;5.00;;
19973;SDS011;10148;47.694;9.442;2023-01-24T00:44:43;10.47;;;6.03;;
19973;SDS011;10148;47.694;9.442;2023-01-24T00:47:09;8.47;;;5.13;;
19973;SDS011;10148;47.694;9.442;2023-01-24T00:49:34;11.03;;;6.13;;
19973;SDS011;10148;47.694;9.442;2023-01-24T00:52:00;11.73;;;6.43;;
19973;SDS011;10148;47.694;9.442;2023-01-24T00:54:25;9.53;;;5.77;;
19973;SDS011;10148;47.694;9.442;2023-01-24T00:56:51;10.47;;;5.60;;
19973;SDS011;10148;47.694;9.442;2023-01-24T00:59:16;10.10;;;6.17;;
19973;SDS011;10148;47.694;9.442;2023-01-24T01:01:42;11.43;;;6.33;;
19973;SDS011;10148;47.694;9.442;2023-01-24T01:04:08;8.20;;;5.63;;
19973;SDS011;10148;47.694;9.442;2023-01-24T01:06:33;8.03;;;5.40;;
19973;SDS011;10148;47.694;9.442;2023-01-24T01:08:59;12.93;;;6.10;;
19973;SDS011;10148;47.694;9.442;2023-01-24T01:11:25;11.23;;;6.37;;
19973;SDS011;10148;47.694;9.442;2023-01-24T01:13:53;12.03;;;5.33;;
19973;SDS011;10148;47.694;9.442;2023-01-24T01:16:19;10.13;;;5.30;;
19973;SDS011;10148;47.694;9.442;2023-01-24T01:18:46;8.33;;;5.83;;
19973;SDS011;10148;47.694;9.442;2023-01-24T01:21:14;9.33;;;5.53;;
19973;SDS011;10148;47.694;9.442;2023-01-24T01:23:42;10.53;;;5.57;;
19973;SDS011;10148;47.694;9.442;2023-01-24T01:26:08;9.03;;;5.77;;
19973;SDS011;10148;47.694;9.442;2023-01-24T01:28:37;10.73;;;6.00;;
19973;SDS011;10148;47.694;9.442;2023-01-24T01:31:03;12.07;;;5.93;;
19973;SDS011;10148;47.694;9.442;2023-01-24T01:33:28;14.53;;;6.73;;
19973;SDS011;10148;47.694;9.442;2023-01-24T01:35:54;9.67;;;5.67;;
19973;SDS011;10148;47.694;9.442;2023-01-24T01:38:19;10.40;;;6.20;;
19973;SDS011;10148;47.694;9.442;2023-01-24T01:40:45;9.90;;;5.93;;
19973;SDS011;10148;47.694;9.442;2023-01-24T01:43:15;10.67;;;5.70;;
19973;SDS011;10148;47.694;9.442;2023-01-24T01:45:46;10.93;;;6.57;;
19973;SDS011;10148;47.694;9.442;2023-01-24T01:50:44;11.90;;;6.00;;
19973;SDS011;10148;47.694;9.442;2023-01-24T01:53:13;9.07;;;5.53;;
19973;SDS011;10148;47.694;9.442;2023-01-24T01:55:40;12.07;;;6.50;;
19973;SDS011;10148;47.694;9.442;2023-01-24T01:58:13;11.47;;;6.47;;
19973;SDS011;10148;47.694;9.442;2023-01-24T02:00:40;7.50;;;5.20;;
19973;SDS011;10148;47.694;9.442;2023-01-24T02:03:14;8.10;;;4.80;;
19973;SDS011;10148;47.694;9.442;2023-01-24T02:06:01;11.93;;;6.43;;
19973;SDS011;10148;47.694;9.442;2023-01-24T02:08:27;12.40;;;5.80;;
19973;SDS011;10148;47.694;9.442;2023-01-24T02:10:54;10.27;;;5.93;;
19973;SDS011;10148;47.694;9.442;2023-01-24T02:13:40;9.27;;;5.63;;
19973;SDS011;10148;47.694;9.442;2023-01-24T02:16:09;8.60;;;5.67;;
19973;SDS011;10148;47.694;9.442;2023-01-24T02:18:39;8.43;;;5.30;;
19973;SDS011;10148;47.694;9.442;2023-01-24T02:21:07;10.10;;;5.30;;
19973;SDS011;10148;47.694;9.442;2023-01-24T02:26:47;10.33;;;6.30;;
19973;SDS011;10148;47.694;9.442;2023-01-24T02:29:13;10.40;;;6.00;;
19973;SDS011;10148;47.694;9.442;2023-01-24T02:31:57;9.00;;;5.33;;
19973;SDS011;10148;47.694;9.442;2023-01-24T02:34:24;8.77;;;5.50;;
19973;SDS011;10148;47.694;9.442;2023-01-24T02:36:52;10.23;;;5.80;;
19973;SDS011;10148;47.694;9.442;2023-01-24T02:39:22;9.37;;;5.77;;
19973;SDS011;10148;47.694;9.442;2023-01-24T02:41:57;8.27;;;5.43;;
19973;SDS011;10148;47.694;9.442;2023-01-24T02:44:38;9.63;;;6.00;;
19973;SDS011;10148;47.694;9.442;2023-01-24T02:47:09;9.10;;;5.70;;
19973;SDS011;10148;47.694;9.442;2023-01-24T02:49:35;9.53;;;4.57;;
19973;SDS011;10148;47.694;9.442;2023-01-24T02:52:00;9.83;;;5.67;;
19973;SDS011;10148;47.694;9.442;2023-01-24T02:54:45;7.40;;;4.57;;
19973;SDS011;10148;47.694;9.442;2023-01-24T02:57:10;7.67;;;4.00;;
19973;SDS011;10148;47.694;9.442;2023-01-24T02:59:54;7.93;;;5.33;;
19973;SDS011;10148;47.694;9.442;2023-01-24T03:02:20;10.07;;;5.70;;
19973;SDS011;10148;47.694;9.442;2023-01-24T03:04:45;8.00;;;5.07;;
19973;SDS011;10148;47.694;9.442;2023-01-24T03:07:11;8.97;;;5.60;;
19973;SDS011;10148;47.694;9.442;2023-01-24T03:09:36;10.33;;;5.70;;
19973;SDS011;10148;47.694;9.442;2023-01-24T03:12:10;8.10;;;4.90;;
19973;SDS011;10148;47.694;9.442;2023-01-24T03:14:55;9.73;;;5.57;;
19973;SDS011;10148;47.694;9.442;2023-01-24T03:17:39;8.53;;;5.03;;
19973;SDS011;10148;47.694;9.442;2023-01-24T03:20:23;9.23;;;4.87;;
19973;SDS011;10148;47.694;9.442;2023-01-24T03:23:07;9.60;;;5.27;;
19973;SDS011;10148;47.694;9.442;2023-01-24T03:25:55;7.67;;;4.63;;
19973;SDS011;10148;47.694;9.442;2023-01-24T03:28:40;8.27;;;5.10;;
19973;SDS011;10148;47.694;9.442;2023-01-24T03:31:25;10.77;;;5.33;;
19973;SDS011;10148;47.694;9.442;2023-01-24T03:34:10;9.93;;;6.00;;
19973;SDS011;10148;47.694;9.442;2023-01-24T03:36:54;8.53;;;5.37;;
19973;SDS011;10148;47.694;9.442;2023-01-24T03:39:20;8.17;;;4.93;;
19973;SDS011;10148;47.694;9.442;2023-01-24T03:42:04;11.00;;;5.87;;
19973;SDS011;10148;47.694;9.442;2023-01-24T03:44:30;9.80;;;5.97;;
19973;SDS011;10148;47.694;9.442;2023-01-24T03:46:55;8.20;;;4.63;;
19973;SDS011;10148;47.694;9.442;2023-01-24T03:49:21;9.87;;;5.07;;
19973;SDS011;10148;47.694;9.442;2023-01-24T03:52:05;10.13;;;5.77;;
19973;SDS011;10148;47.694;9.442;2023-01-24T03:54:49;9.70;;;4.90;;
19973;SDS011;10148;47.694;9.442;2023-01-24T03:57:14;8.23;;;4.80;;
19973;SDS011;10148;47.694;9.442;2023-01-24T03:59:40;9.03;;;5.53;;
19973;SDS011;10148;47.694;9.442;2023-01-24T04:02:05;10.63;;;5.77;;
19973;SDS011;10148;47.694;9.442;2023-01-24T04:04:31;10.93;;;5.10;;
19973;SDS011;10148;47.694;9.442;2023-01-24T04:07:16;9.57;;;4.73;;
19973;SDS011;10148;47.694;9.442;2023-01-24T04:09:42;8.30;;;4.93;;
19973;SDS011;10148;47.694;9.442;2023-01-24T04:12:07;9.43;;;5.87;;
19973;SDS011;10148;47.694;9.442;2023-01-24T04:14:33;7.97;;;4.73;;
19973;SDS011;10148;47.694;9.442;2023-01-24T04:16:58;7.13;;;4.70;;
19973;SDS011;10148;47.694;9.442;2023-01-24T04:19:24;8.57;;;5.60;;
19973;SDS011;10148;47.694;9.442;2023-01-24T04:21:49;8.33;;;5.03;;
19973;SDS011;10148;47.694;9.442;2023-01-24T04:24:15;10.67;;;5.30;;
19973;SDS011;10148;47.694;9.442;2023-01-24T04:26:40;7.50;;;5.23;;
19973;SDS011;10148;47.694;9.442;2023-01-24T04:29:06;9.47;;;5.33;;
19973;SDS011;10148;47.694;9.442;2023-01-24T04:31:31;12.43;;;6.30;;
19973;SDS011;10148;47.694;9.442;2023-01-24T04:33:57;9.97;;;5.37;;
19973;SDS011;10148;47.694;9.442;2023-01-24T04:36:22;10.27;;;5.67;;
19973;SDS011;10148;47.694;9.442;2023-01-24T04:38:48;8.40;;;5.63;;
19973;SDS011;10148;47.694;9.442;2023-01-24T04:41:13;10.53;;;6.03;;
19973;SDS011;10148;47.694;9.442;2023-01-24T04:43:39;11.73;;;5.63;;
19973;SDS011;10148;47.694;9.442;2023-01-24T04:46:05;10.97;;;5.60;;
19973;SDS011;10148;47.694;9.442;2023-01-24T04:48:31;11.17;;;5.40;;
19973;SDS011;10148;47.694;9.442;2023-01-24T04:51:00;10.57;;;5.87;;
19973;SDS011;10148;47.694;9.442;2023-01-24T04:53:26;10.00;;;5.27;;
19973;SDS011;10148;47.694;9.442;2023-01-24T04:55:53;11.17;;;5.77;;
19973;SDS011;10148;47.694;9.442;2023-01-24T04:58:19;8.33;;;4.90;;
19973;SDS011;10148;47.694;9.442;2023-01-24T05:00:45;9.70;;;5.03;;
19973;SDS011;10148;47.694;9.442;2023-01-24T05:03:12;10.47;;;5.33;;
19973;SDS011;10148;47.694;9.442;2023-01-24T05:05:38;10.07;;;5.57;;
19973;SDS011;10148;47.694;9.442;2023-01-24T05:08:03;8.33;;;4.47;;
19973;SDS011;10148;47.694;9.442;2023-01-24T05:10:29;9.20;;;5.33;;
19973;SDS011;10148;47.694;9.442;2023-01-24T05:12:54;9.70;;;5.87;;
19973;SDS011;10148;47.694;9.442;2023-01-24T05:15:20;8.30;;;4.97;;
19973;SDS011;10148;47.694;9.442;2023-01-24T05:17:47;8.40;;;4.93;;
19973;SDS011;10148;47.694;9.442;2023-01-24T05:20:13;7.37;;;4.53;;
19973;SDS011;10148;47.694;9.442;2023-01-24T05:22:39;9.47;;;6.13;;
19973;SDS011;10148;47.694;9.442;2023-01-24T05:25:04;9.70;;;5.87;;
19973;SDS011;10148;47.694;9.442;2023-01-24T05:27:31;10.57;;;5.77;;
19973;SDS011;10148;47.694;9.442;2023-01-24T05:29:56;9.43;;;5.80;;
19973;SDS011;10148;47.694;9.442;2023-01-24T05:32:22;9.40;;;5.17;;
19973;SDS011;10148;47.694;9.442;2023-01-24T05:34:47;11.17;;;6.03;;
19973;SDS011;10148;47.694;9.442;2023-01-24T05:37:13;11.03;;;6.30;;
19973;SDS011;10148;47.694;9.442;2023-01-24T05:39:38;11.23;;;5.73;;
19973;SDS011;10148;47.694;9.442;2023-01-24T05:42:04;12.97;;;5.30;;
19973;SDS011;10148;47.694;9.442;2023-01-24T05:44:29;9.10;;;5.80;;
19973;SDS011;10148;47.694;9.442;2023-01-24T05:46:55;11.13;;;6.37;;
19973;SDS011;10148;47.694;9.442;2023-01-24T05:49:20;13.27;;;6.57;;
19973;SDS011;10148;47.694;9.442;2023-01-24T05:51:46;9.63;;;5.67;;
19973;SDS011;10148;47.694;9.442;2023-01-24T05:54:11;8.40;;;5.50;;
19973;SDS011;10148;47.694;9.442;2023-01-24T05:56:37;13.00;;;7.37;;
19973;SDS011;10148;47.694;9.442;2023-01-24T05:59:02;12.57;;;6.77;;
19973;SDS011;10148;47.694;9.442;2023-01-24T06:01:28;9.10;;;6.17;;
19973;SDS011;10148;47.694;9.442;2023-01-24T06:03:54;10.90;;;6.13;;
19973;SDS011;10148;47.694;9.442;2023-01-24T06:06:20;9.30;;;5.73;;
19973;SDS011;10148;47.694;9.442;2023-01-24T06:08:47;11.57;;;6.43;;
19973;SDS011;10148;47.694;9.442;2023-01-24T06:11:17;10.97;;;6.07;;
19973;SDS011;10148;47.694;9.442;2023-01-24T06:13:44;10.87;;;6.07;;
19973;SDS011;10148;47.694;9.442;2023-01-24T06:16:14;12.53;;;7.07;;
19973;SDS011;10148;47.694;9.442;2023-01-24T06:18:44;10.03;;;5.00;;
19973;SDS011;10148;47.694;9.442;2023-01-24T06:23:48;9.80;;;5.53;;
19973;SDS011;10148;47.694;9.442;2023-01-24T06:26:14;10.73;;;6.20;;
19973;SDS011;10148;47.694;9.442;2023-01-24T06:28:40;9.40;;;5.33;;
19973;SDS011;10148;47.694;9.442;2023-01-24T06:31:50;10.07;;;5.70;;
19973;SDS011;10148;47.694;9.442;2023-01-24T06:34:37;8.70;;;5.07;;
19973;SDS011;10148;47.694;9.442;2023-01-24T06:40:08;12.93;;;6.13;;
19973;SDS011;10148;47.694;9.442;2023-01-24T06:42:35;10.40;;;5.80;;
19973;SDS011;10148;47.694;9.442;2023-01-24T06:45:01;9.77;;;5.93;;
19973;SDS011;10148;47.694;9.442;2023-01-24T06:47:27;11.97;;;6.30;;
19973;SDS011;10148;47.694;9.442;2023-01-24T06:49:53;10.33;;;6.37;;
19973;SDS011;10148;47.694;9.442;2023-01-24T06:52:19;10.97;;;5.90;;
19973;SDS011;10148;47.694;9.442;2023-01-24T06:54:44;5.70;;;3.50;;
19973;SDS011;10148;47.694;9.442;2023-01-24T06:57:10;7.83;;;5.07;;
19973;SDS011;10148;47.694;9.442;2023-01-24T06:59:36;7.00;;;4.70;;
19973;SDS011;10148;47.694;9.442;2023-01-24T07:02:01;7.33;;;5.07;;
19973;SDS011;10148;47.694;9.442;2023-01-24T07:04:27;8.03;;;4.80;;
19973;SDS011;10148;47.694;9.442;2023-01-24T07:06:52;8.13;;;4.80;;
19973;SDS011;10148;47.694;9.442;2023-01-24T07:09:21;6.70;;;4.37;;
19973;SDS011;10148;47.694;9.442;2023-01-24T07:11:49;6.80;;;4.70;;
19973;SDS011;10148;47.694;9.442;2023-01-24T07:14:17;7.83;;;4.37;;
19973;SDS011;10148;47.694;9.442;2023-01-24T07:16:43;6.40;;;4.33;;
19973;SDS011;10148;47.694;9.442;2023-01-24T07:19:12;6.23;;;4.47;;
19973;SDS011;10148;47.694;9.442;2023-01-24T07:21:39;6.87;;;4.53;;
19973;SDS011;10148;47.694;9.442;2023-01-24T07:24:08;6.90;;;4.40;;
19973;SDS011;10148;47.694;9.442;2023-01-24T07:26:38;8.07;;;3.67;;
19973;SDS011;10148;47.694;9.442;2023-01-24T07:29:03;4.97;;;3.80;;
19973;SDS011;10148;47.694;9.442;2023-01-24T07:31:29;6.90;;;3.90;;
19973;SDS011;10148;47.694;9.442;2023-01-24T07:33:54;5.83;;;3.93;;
19973;SDS011;10148;47.694;9.442;2023-01-24T07:36:20;5.73;;;3.80;;
19973;SDS011;10148;47.694;9.442;2023-01-24T07:38:45;6.10;;;4.20;;
19973;SDS011;10148;47.694;9.442;2023-01-24T07:41:11;7.37;;;4.20;;
19973;SDS011;10148;47.694;9.442;2023-01-24T07:43:36;5.83;;;3.67;;
19973;SDS011;10148;47.694;9.442;2023-01-24T07:46:02;5.13;;;4.03;;
19973;SDS011;10148;47.694;9.442;2023-01-24T07:48:29;7.07;;;3.63;;
19973;SDS011;10148;47.694;9.442;2023-01-24T07:50:57;18.70;;;9.50;;
19973;SDS011;10148;47.694;9.442;2023-01-24T07:53:24;7.33;;;4.50;;
19973;SDS011;10148;47.694;9.442;2023-01-24T07:55:49;6.83;;;3.80;;
19973;SDS011;10148;47.694;9.442;2023-01-24T07:58:15;5.80;;;3.70;;
19973;SDS011;10148;47.694;9.442;2023-01-24T08:00:40;4.73;;;3.57;;
19973;SDS011;10148;47.694;9.442;2023-01-24T08:03:06;5.40;;;3.97;;
19973;SDS011;10148;47.694;9.442;2023-01-24T08:05:35;5.57;;;3.40;;
19973;SDS011;10148;47.694;9.442;2023-01-24T08:08:02;5.83;;;3.27;;
19973;SDS011;10148;47.694;9.442;2023-01-24T08:10:27;6.27;;;3.53;;
19973;SDS011;10148;47.694;9.442;2023-01-24T08:12:54;5.37;;;3.90;;
19973;SDS011;10148;47.694;9.442;2023-01-24T08:15:20;6.03;;;3.83;;
19973;SDS011;10148;47.694;9.442;2023-01-24T08:17:46;6.60;;;3.53;;
19973;SDS011;10148;47.694;9.442;2023-01-24T08:20:11;6.57;;;4.20;;
19973;SDS011;10148;47.694;9.442;2023-01-24T08:22:38;6.33;;;4.00;;
19973;SDS011;10148;47.694;9.442;2023-01-24T08:25:04;5.10;;;3.57;;
19973;SDS011;10148;47.694;9.442;2023-01-24T08:27:30;4.67;;;3.47;;
19973;SDS011;10148;47.694;9.442;2023-01-24T08:29:56;5.73;;;3.87;;
19973;SDS011;10148;47.694;9.442;2023-01-24T08:32:22;5.83;;;3.80;;
19973;SDS011;10148;47.694;9.442;2023-01-24T08:34:47;7.97;;;5.20;;
19973;SDS011;10148;47.694;9.442;2023-01-24T08:37:13;5.03;;;3.63;;
19973;SDS011;10148;47.694;9.442;2023-01-24T08:39:38;6.07;;;4.10;;
19973;SDS011;10148;47.694;9.442;2023-01-24T08:42:04;6.30;;;3.37;;
19973;SDS011;10148;47.694;9.442;2023-01-24T08:44:29;4.93;;;3.37;;
19973;SDS011;10148;47.694;9.442;2023-01-24T08:46:55;4.97;;;3.73;;
19973;SDS011;10148;47.694;9.442;2023-01-24T08:49:20;5.33;;;3.73;;
19973;SDS011;10148;47.694;9.442;2023-01-24T08:51:46;5.20;;;3.90;;
19973;SDS011;10148;47.694;9.442;2023-01-24T08:54:12;6.60;;;3.97;;
19973;SDS011;10148;47.694;9.442;2023-01-24T08:56:38;8.77;;;3.80;;
19973;SDS011;10148;47.694;9.442;2023-01-24T08:59:04;6.57;;;3.67;;
19973;SDS011;10148;47.694;9.442;2023-01-24T09:01:29;5.47;;;3.53;;
19973;SDS011;10148;47.694;9.442;2023-01-24T09:03:57;6.80;;;3.60;;
19973;SDS011;10148;47.694;9.442;2023-01-24T09:06:24;6.53;;;3.60;;
19973;SDS011;10148;47.694;9.442;2023-01-24T09:08:53;11.40;;;4.10;;
19973;SDS011;10148;47.694;9.442;2023-01-24T09:11:19;6.03;;;3.67;;
19973;SDS011;10148;47.694;9.442;2023-01-24T09:13:45;7.23;;;3.97;;
19973;SDS011;10148;47.694;9.442;2023-01-24T09:16:11;6.87;;;4.60;;
19973;SDS011;10148;47.694;9.442;2023-01-24T09:18:36;7.37;;;4.63;;
19973;SDS011;10148;47.694;9.442;2023-01-24T09:21:02;7.73;;;4.50;;
19973;SDS011;10148;47.694;9.442;2023-01-24T09:23:28;7.83;;;4.70;;
19973;SDS011;10148;47.694;9.442;2023-01-24T09:25:54;8.87;;;4.73;;
19973;SDS011;10148;47.694;9.442;2023-01-24T09:28:20;8.37;;;4.67;;
19973;SDS011;10148;47.694;9.442;2023-01-24T09:30:47;9.67;;;5.07;;
19973;SDS011;10148;47.694;9.442;2023-01-24T09:33:13;8.03;;;5.23;;
19973;SDS011;10148;47.694;9.442;2023-01-24T09:35:39;9.10;;;5.03;;
19973;SDS011;10148;47.694;9.442;2023-01-24T09:38:05;7.67;;;5.03;;
19973;SDS011;10148;47.694;9.442;2023-01-24T09:43:40;8.93;;;5.17;;
19973;SDS011;10148;47.694;9.442;2023-01-24T09:46:13;14.07;;;5.20;;
19973;SDS011;10148;47.694;9.442;2023-01-24T09:48:43;7.53;;;4.50;;
19973;SDS011;10148;47.694;9.442;2023-01-24T09:51:13;9.43;;;5.17;;
19973;SDS011;10148;47.694;9.442;2023-01-24T09:53:48;9.77;;;5.13;;
19973;SDS011;10148;47.694;9.442;2023-01-24T09:56:24;8.40;;;4.97;;
19973;SDS011;10148;47.694;9.442;2023-01-24T09:58:57;9.43;;;4.93;;
19973;SDS011;10148;47.694;9.442;2023-01-24T10:01:35;9.33;;;5.10;;
19973;SDS011;10148;47.694;9.442;2023-01-24T10:04:03;7.70;;;4.93;;
19973;SDS011;10148;47.694;9.442;2023-01-24T10:06:30;11.30;;;5.97;;
19973;SDS011;10148;47.694;9.442;2023-01-24T10:09:09;8.87;;;5.43;;
19973;SDS011;10148;47.694;9.442;2023-01-24T10:12:04;8.80;;;5.97;;
19973;SDS011;10148;47.694;9.442;2023-01-24T10:17:40;9.33;;;4.73;;
19973;SDS011;10148;47.694;9.442;2023-01-24T10:23:18;8.37;;;5.37;;
19973;SDS011;10148;47.694;9.442;2023-01-24T10:28:17;11.27;;;5.73;;
19973;SDS011;10148;47.694;9.442;2023-01-24T10:30:56;9.40;;;5.70;;
19973;SDS011;10148;47.694;9.442;2023-01-24T10:33:32;21.70;;;8.43;;
19973;SDS011;10148;47.694;9.442;2023-01-24T10:36:04;15.87;;;8.40;;
19973;SDS011;10148;47.694;9.442;2023-01-24T10:38:37;10.90;;;6.67;;
19973;SDS011;10148;47.694;9.442;2023-01-24T10:41:17;8.83;;;4.83;;
19973;SDS011;10148;47.694;9.442;2023-01-24T10:43:56;10.87;;;5.43;;
19973;SDS011;10148;47.694;9.442;2023-01-24T10:49:18;10.47;;;6.97;;
19973;SDS011;10148;47.694;9.442;2023-01-24T10:54:56;7.17;;;4.33;;
19973;SDS011;10148;47.694;9.442;2023-01-24T11:02:52;8.13;;;5.33;;
19973;SDS011;10148;47.694;9.442;2023-01-24T11:05:19;10.47;;;5.27;;
19973;SDS011;10148;47.694;9.442;2023-01-24T11:07:47;10.03;;;5.60;;
19973;SDS011;10148;47.694;9.442;2023-01-24T11:10:19;8.10;;;4.90;;
19973;SDS011;10148;47.694;9.442;2023-01-24T11:12:54;12.67;;;5.93;;
19973;SDS011;10148;47.694;9.442;2023-01-24T11:15:33;7.03;;;4.97;;
19973;SDS011;10148;47.694;9.442;2023-01-24T11:18:11;10.03;;;5.43;;
19973;SDS011;10148;47.694;9.442;2023-01-24T11:20:45;9.47;;;5.53;;
19973;SDS011;10148;47.694;9.442;2023-01-24T11:23:12;9.37;;;5.50;;
19973;SDS011;10148;47.694;9.442;2023-01-24T11:25:53;8.10;;;5.50;;
19973;SDS011;10148;47.694;9.442;2023-01-24T11:28:24;7.70;;;5.00;;
19973;SDS011;10148;47.694;9.442;2023-01-24T11:30:56;8.67;;;5.27;;
19973;SDS011;10148;47.694;9.442;2023-01-24T11:36:33;6.30;;;4.17;;
19973;SDS011;10148;47.694;9.442;2023-01-24T11:48:08;7.83;;;4.43;;
19973;SDS011;10148;47.694;9.442;2023-01-24T11:53:28;8.17;;;4.80;;
19973;SDS011;10148;47.694;9.442;2023-01-24T12:12:57;11.07;;;6.13;;
19973;SDS011;10148;47.694;9.442;2023-01-24T12:15:45;15.87;;;7.67;;
19973;SDS011;10148;47.694;9.442;2023-01-24T12:21:00;9.97;;;5.77;;
19973;SDS011;10148;47.694;9.442;2023-01-24T12:26:21;9.97;;;5.93;;
19973;SDS011;10148;47.694;9.442;2023-01-24T12:28:55;11.40;;;6.40;;
19973;SDS011;10148;47.694;9.442;2023-01-24T12:31:45;10.43;;;6.33;;
19973;SDS011;10148;47.694;9.442;2023-01-24T12:36:58;11.10;;;5.77;;
19973;SDS011;10148;47.694;9.442;2023-01-24T12:39:35;11.47;;;6.43;;
19973;SDS011;10148;47.694;9.442;2023-01-24T12:42:16;11.10;;;6.90;;
19973;SDS011;10148;47.694;9.442;2023-01-24T12:44:57;11.97;;;6.93;;
19973;SDS011;10148;47.694;9.442;2023-01-24T12:47:36;14.20;;;6.17;;
19973;SDS011;10148;47.694;9.442;2023-01-24T12:50:24;11.37;;;6.97;;
19973;SDS011;10148;47.694;9.442;2023-01-24T12:58:18;11.87;;;6.73;;
19973;SDS011;10148;47.694;9.442;2023-01-24T13:12:24;13.20;;;7.37;;
19973;SDS011;10148;47.694;9.442;2023-01-24T13:15:04;12.07;;;6.40;;
19973;SDS011;10148;47.694;9.442;2023-01-24T13:23:18;10.50;;;5.80;;
19973;SDS011;10148;47.694;9.442;2023-01-24T13:26:15;12.13;;;6.70;;
19973;SDS011;10148;47.694;9.442;2023-01-24T13:28:55;10.33;;;6.57;;
19973;SDS011;10148;47.694;9.442;2023-01-24T13:31:51;11.17;;;6.50;;
19973;SDS011;10148;47.694;9.442;2023-01-24T13:34:29;11.90;;;6.00;;
19973;SDS011;10148;47.694;9.442;2023-01-24T13:36:57;11.50;;;6.57;;
19973;SDS011;10148;47.694;9.442;2023-01-24T13:42:03;13.13;;;6.50;;
19973;SDS011;10148;47.694;9.442;2023-01-24T13:44:37;9.37;;;6.47;;
19973;SDS011;10148;47.694;9.442;2023-01-24T13:54:58;10.57;;;6.73;;
19973;SDS011;10148;47.694;9.442;2023-01-24T13:57:28;14.83;;;7.67;;
19973;SDS011;10148;47.694;9.442;2023-01-24T14:02:54;13.77;;;7.90;;
19973;SDS011;10148;47.694;9.442;2023-01-24T14:07:57;15.67;;;8.73;;
19973;SDS011;10148;47.694;9.442;2023-01-24T14:10:46;10.90;;;6.67;;
19973;SDS011;10148;47.694;9.442;2023-01-24T14:14:21;11.23;;;7.13;;
19973;SDS011;10148;47.694;9.442;2023-01-24T14:24:30;13.00;;;7.03;;
19973;SDS011;10148;47.694;9.442;2023-01-24T14:27:18;12.20;;;6.80;;
19973;SDS011;10148;47.694;9.442;2023-01-24T14:29:48;14.60;;;7.67;;
19973;SDS011;10148;47.694;9.442;2023-01-24T14:34:56;13.47;;;6.70;;
19973;SDS011;10148;47.694;9.442;2023-01-24T14:37:30;11.13;;;6.47;;
19973;SDS011;10148;47.694;9.442;2023-01-24T14:42:41;10.67;;;6.00;;
19973;SDS011;10148;47.694;9.442;2023-01-24T14:45:12;9.97;;;6.30;;
19973;SDS011;10148;47.694;9.442;2023-01-24T14:47:41;8.83;;;5.80;;
19973;SDS011;10148;47.694;9.442;2023-01-24T14:50:22;11.93;;;6.80;;
19973;SDS011;10148;47.694;9.442;2023-01-24T14:52:53;11.03;;;6.07;;
19973;SDS011;10148;47.694;9.442;2023-01-24T14:55:29;11.93;;;6.50;;
19973;SDS011;10148;47.694;9.442;2023-01-24T14:58:13;12.17;;;8.10;;
19973;SDS011;10148;47.694;9.442;2023-01-24T15:00:40;11.77;;;6.47;;
19973;SDS011;10148;47.694;9.442;2023-01-24T15:03:05;12.83;;;6.30;;
19973;SDS011;10148;47.694;9.442;2023-01-24T15:07:58;11.40;;;6.30;;
19973;SDS011;10148;47.694;9.442;2023-01-24T15:10:36;19.83;;;7.63;;
19973;SDS011;10148;47.694;9.442;2023-01-24T15:13:05;14.43;;;7.67;;
19973;SDS011;10148;47.694;9.442;2023-01-24T15:15:42;14.40;;;8.07;;
19973;SDS011;10148;47.694;9.442;2023-01-24T15:18:25;12.67;;;7.47;;
19973;SDS011;10148;47.694;9.442;2023-01-24T15:21:00;11.77;;;7.27;;
19973;SDS011;10148;47.694;9.442;2023-01-24T15:23:27;14.23;;;7.40;;
19973;SDS011;10148;47.694;9.442;2023-01-24T15:25:54;11.77;;;6.67;;
19973;SDS011;10148;47.694;9.442;2023-01-24T15:30:58;9.87;;;5.93;;
19973;SDS011;10148;47.694;9.442;2023-01-24T15:33:25;12.33;;;6.70;;
19973;SDS011;10148;47.694;9.442;2023-01-24T15:36:23;12.83;;;6.47;;
19973;SDS011;10148;47.694;9.442;2023-01-24T15:38:51;12.23;;;6.47;;
19973;SDS011;10148;47.694;9.442;2023-01-24T15:41:19;12.00;;;6.63;;
19973;SDS011;10148;47.694;9.442;2023-01-24T15:43:48;11.30;;;6.43;;
19973;SDS011;10148;47.694;9.442;2023-01-24T15:54:27;12.40;;;6.50;;
19973;SDS011;10148;47.694;9.442;2023-01-24T15:56:53;13.37;;;7.23;;
19973;SDS011;10148;47.694;9.442;2023-01-24T15:59:22;11.37;;;6.37;;
19973;SDS011;10148;47.694;9.442;2023-01-24T16:01:48;13.13;;;7.13;;
19973;SDS011;10148;47.694;9.442;2023-01-24T16:04:15;12.10;;;6.60;;
19973;SDS011;10148;47.694;9.442;2023-01-24T16:06:42;11.63;;;6.77;;
19973;SDS011;10148;47.694;9.442;2023-01-24T16:09:07;10.57;;;5.87;;
19973;SDS011;10148;47.694;9.442;2023-01-24T16:11:34;13.07;;;6.10;;
19973;SDS011;10148;47.694;9.442;2023-01-24T16:14:04;12.77;;;6.93;;
19973;SDS011;10148;47.694;9.442;2023-01-24T16:16:32;17.90;;;9.17;;
19973;SDS011;10148;47.694;9.442;2023-01-24T16:18:59;18.27;;;9.27;;
19973;SDS011;10148;47.694;9.442;2023-01-24T16:21:24;14.10;;;7.97;;
19973;SDS011;10148;47.694;9.442;2023-01-24T16:23:50;11.00;;;6.17;;
19973;SDS011;10148;47.694;9.442;2023-01-24T16:26:20;13.13;;;8.43;;
19973;SDS011;10148;47.694;9.442;2023-01-24T16:28:48;13.33;;;7.70;;
19973;SDS011;10148;47.694;9.442;2023-01-24T16:31:14;12.40;;;7.43;;
19973;SDS011;10148;47.694;9.442;2023-01-24T16:33:40;17.27;;;8.23;;
19973;SDS011;10148;47.694;9.442;2023-01-24T16:36:06;15.70;;;7.63;;
19973;SDS011;10148;47.694;9.442;2023-01-24T16:38:32;13.23;;;7.13;;
19973;SDS011;10148;47.694;9.442;2023-01-24T16:40:57;12.23;;;6.90;;
19973;SDS011;10148;47.694;9.442;2023-01-24T16:43:23;11.17;;;6.27;;
19973;SDS011;10148;47.694;9.442;2023-01-24T16:45:50;12.37;;;6.47;;
19973;SDS011;10148;47.694;9.442;2023-01-24T16:48:16;15.67;;;6.83;;
19973;SDS011;10148;47.694;9.442;2023-01-24T16:50:42;12.53;;;7.10;;
19973;SDS011;10148;47.694;9.442;2023-01-24T16:53:10;13.90;;;7.07;;
19973;SDS011;10148;47.694;9.442;2023-01-24T16:55:36;15.60;;;7.13;;
19973;SDS011;10148;47.694;9.442;2023-01-24T16:58:06;13.77;;;6.67;;
19973;SDS011;10148;47.694;9.442;2023-01-24T17:00:32;13.73;;;7.30;;
19973;SDS011;10148;47.694;9.442;2023-01-24T17:02:59;11.13;;;6.10;;
19973;SDS011;10148;47.694;9.442;2023-01-24T17:05:26;19.63;;;10.07;;
19973;SDS011;10148;47.694;9.442;2023-01-24T17:07:53;15.43;;;8.20;;
19973;SDS011;10148;47.694;9.442;2023-01-24T17:10:19;22.23;;;10.17;;
19973;SDS011;10148;47.694;9.442;2023-01-24T17:12:44;25.33;;;14.77;;
19973;SDS011;10148;47.694;9.442;2023-01-24T17:15:10;18.03;;;10.00;;